createdAt,value
2022-12-27T00:00:41.502Z,13.25
2022-12-27T00:03:09.533Z,13.27
2022-12-27T00:05:37.727Z,13.22
2022-12-27T00:08:05.916Z,13.22
2022-12-27T00:10:34.194Z,13.22
2022-12-27T00:13:02.177Z,13.22
2022-12-27T00:15:30.317Z,13.24
2022-12-27T00:17:59.826Z,13.27
2022-12-27T00:20:27.855Z,13.26
2022-12-27T00:22:55.841Z,13.29
2022-12-27T00:25:24.128Z,13.25
2022-12-27T00:27:52.439Z,13.24
2022-12-27T00:30:20.585Z,13.16
2022-12-27T00:32:48.552Z,13.10
2022-12-27T00:35:18.297Z,13.17
2022-12-27T00:37:46.493Z,13.21
2022-12-27T00:40:14.686Z,13.19
2022-12-27T00:42:42.763Z,13.23
2022-12-27T00:45:12.008Z,13.22
2022-12-27T00:47:40.357Z,13.19
2022-12-27T00:50:08.935Z,13.24
2022-12-27T00:52:38.294Z,13.19
2022-12-27T00:55:09.193Z,13.19
2022-12-27T00:57:37.223Z,13.14
2022-12-27T01:00:10.132Z,13.15
2022-12-27T01:02:38.822Z,13.15
2022-12-27T01:05:07.805Z,13.14
2022-12-27T01:07:36.005Z,13.17
2022-12-27T01:10:06.936Z,13.19
2022-12-27T01:12:36.417Z,13.22
2022-12-27T01:15:04.737Z,13.20
2022-12-27T01:17:33.007Z,13.06
2022-12-27T01:20:01.376Z,13.02
2022-12-27T01:22:29.355Z,13.12
2022-12-27T01:24:57.548Z,13.13
2022-12-27T01:27:27.121Z,13.12
2022-12-27T01:29:55.161Z,13.14
2022-12-27T01:32:23.305Z,13.12
2022-12-27T01:34:51.961Z,13.10
2022-12-27T01:37:19.944Z,13.09
2022-12-27T01:39:48.213Z,13.09
2022-12-27T01:42:35.593Z,13.07
2022-12-27T01:45:12.168Z,13.07
2022-12-27T01:47:49.025Z,13.10
2022-12-27T01:50:22.933Z,13.11
2022-12-27T01:52:57.933Z,13.12
2022-12-27T01:55:31.625Z,13.10
2022-12-27T01:58:04.594Z,13.14
2022-12-27T02:00:34.186Z,13.05
2022-12-27T02:03:06.260Z,12.96
2022-12-27T02:05:36.361Z,12.83
2022-12-27T02:08:21.432Z,12.70
2022-12-27T02:10:50.169Z,12.78
2022-12-27T02:13:19.696Z,12.75
2022-12-27T02:15:49.063Z,12.82
2022-12-27T02:18:17.404Z,12.86
2022-12-27T02:21:09.690Z,12.76
2022-12-27T02:24:04.548Z,12.68
2022-12-27T02:26:42.993Z,12.63
2022-12-27T02:29:27.814Z,12.62
2022-12-27T02:32:00.998Z,12.69
2022-12-27T02:34:34.643Z,12.77
2022-12-27T02:37:08.388Z,12.83
2022-12-27T02:39:40.424Z,12.81
2022-12-27T02:42:27.436Z,12.85
2022-12-27T02:45:13.723Z,12.90
2022-12-27T02:48:00.453Z,12.89
2022-12-27T02:50:57.341Z,12.88
2022-12-27T02:53:37.944Z,12.88
2022-12-27T02:56:41.001Z,12.77
2022-12-27T02:59:23.626Z,12.72
2022-12-27T03:02:26.137Z,12.73
2022-12-27T03:05:10.292Z,12.76
2022-12-27T03:07:50.119Z,12.78
2022-12-27T03:10:45.576Z,12.80
2022-12-27T03:13:42.457Z,12.83
2022-12-27T03:16:22.259Z,12.83
2022-12-27T03:19:13.590Z,12.69
2022-12-27T03:22:03.315Z,12.69
2022-12-27T03:24:58.150Z,12.67
2022-12-27T03:27:32.888Z,12.68
2022-12-27T03:30:20.897Z,12.70
2022-12-27T03:33:11.066Z,12.64
2022-12-27T03:36:05.870Z,12.69
2022-12-27T03:38:36.595Z,12.73
2022-12-27T03:41:26.022Z,12.67
2022-12-27T03:43:53.956Z,12.58
2022-12-27T03:46:35.108Z,12.62
2022-12-27T03:49:22.967Z,12.65
2022-12-27T03:51:56.671Z,12.64
2022-12-27T03:54:28.519Z,12.64
2022-12-27T03:56:58.244Z,12.68
2022-12-27T03:59:26.871Z,12.64
2022-12-27T04:01:55.342Z,12.67
2022-12-27T04:04:24.998Z,12.70
2022-12-27T04:06:54.469Z,12.76
2022-12-27T04:09:40.194Z,12.76
2022-12-27T04:12:26.014Z,12.71
2022-12-27T04:15:11.438Z,12.55
2022-12-27T04:17:57.149Z,12.51
2022-12-27T04:20:43.158Z,12.53
2022-12-27T04:23:30.323Z,12.57
2022-12-27T04:26:15.498Z,12.52
2022-12-27T04:29:01.011Z,12.50
2022-12-27T04:31:46.553Z,12.23
2022-12-27T04:34:32.114Z,12.18
2022-12-27T04:37:00.288Z,11.88
2022-12-27T04:39:29.744Z,12.03
2022-12-27T04:42:15.281Z,12.09
2022-12-27T04:45:00.738Z,12.10
2022-12-27T04:47:46.471Z,12.13
2022-12-27T04:50:40.250Z,12.01
2022-12-27T04:53:31.786Z,12.01
2022-12-27T04:56:01.499Z,11.92
2022-12-27T04:58:29.784Z,11.84
2022-12-27T05:01:18.590Z,11.89
2022-12-27T05:03:49.950Z,11.84
2022-12-27T05:06:18.551Z,11.99
2022-12-27T05:09:04.530Z,12.05
2022-12-27T05:11:51.201Z,12.03
2022-12-27T05:14:19.365Z,12.04
2022-12-27T05:16:47.472Z,11.95
2022-12-27T05:19:15.915Z,12.01
2022-12-27T05:22:06.027Z,11.95
2022-12-27T05:24:51.671Z,11.98
2022-12-27T05:27:21.298Z,12.04
2022-12-27T05:29:49.459Z,12.07
2022-12-27T05:32:17.444Z,12.13
2022-12-27T05:34:45.470Z,12.24
2022-12-27T05:37:13.483Z,12.24
2022-12-27T05:39:41.552Z,12.27
2022-12-27T05:42:09.763Z,12.37
2022-12-27T05:44:39.145Z,12.37
2022-12-27T05:47:07.212Z,12.35
2022-12-27T05:49:35.307Z,12.35
2022-12-27T05:52:03.460Z,12.17
2022-12-27T05:54:31.676Z,12.17
2022-12-27T05:56:59.644Z,12.27
2022-12-27T05:59:27.635Z,12.30
2022-12-27T06:01:57.229Z,12.36
2022-12-27T06:04:25.396Z,12.38
2022-12-27T06:06:53.695Z,12.40
2022-12-27T06:09:22.050Z,12.36
2022-12-27T06:11:50.083Z,12.39
2022-12-27T06:14:18.101Z,12.42
2022-12-27T06:16:46.275Z,12.45
2022-12-27T06:19:15.767Z,12.42
2022-12-27T06:21:43.758Z,12.44
2022-12-27T06:24:12.131Z,12.35
2022-12-27T06:26:40.230Z,12.27
2022-12-27T06:29:08.171Z,12.24
2022-12-27T06:31:36.202Z,12.24
2022-12-27T06:34:05.086Z,12.25
2022-12-27T06:36:34.557Z,12.15
2022-12-27T06:39:03.129Z,12.18
2022-12-27T06:41:31.384Z,12.19
2022-12-27T06:43:59.906Z,12.19
2022-12-27T06:46:27.996Z,12.20
2022-12-27T06:48:56.087Z,12.13
2022-12-27T06:51:24.321Z,11.99
2022-12-27T06:53:53.950Z,11.89
2022-12-27T06:56:23.293Z,11.87
2022-12-27T06:58:55.833Z,11.92
2022-12-27T07:01:25.958Z,11.93
2022-12-27T07:03:55.871Z,11.84
2022-12-27T07:06:25.793Z,11.88
2022-12-27T07:08:55.913Z,11.84
2022-12-27T07:11:25.021Z,11.80
2022-12-27T07:13:54.907Z,11.72
2022-12-27T07:16:24.594Z,11.64
2022-12-27T07:18:52.765Z,11.45
2022-12-27T07:21:22.977Z,11.52
2022-12-27T07:23:51.569Z,11.62
2022-12-27T07:26:22.947Z,11.57
2022-12-27T07:28:51.301Z,11.61
2022-12-27T07:31:21.123Z,11.47
2022-12-27T07:33:49.107Z,11.48
2022-12-27T07:36:20.041Z,11.43
2022-12-27T07:38:48.515Z,11.27
2022-12-27T07:41:17.937Z,11.38
2022-12-27T07:43:47.618Z,11.53
2022-12-27T07:46:17.713Z,11.66
2022-12-27T07:48:46.556Z,11.71
2022-12-27T07:51:16.162Z,11.76
2022-12-27T07:53:44.505Z,11.87
2022-12-27T07:56:16.761Z,11.78
2022-12-27T07:58:51.499Z,11.89
2022-12-27T08:01:21.398Z,11.96
2022-12-27T08:03:49.770Z,11.99
2022-12-27T08:06:23.657Z,12.03
2022-12-27T08:08:53.972Z,12.03
2022-12-27T08:11:23.211Z,12.01
2022-12-27T08:13:52.842Z,11.93
2022-12-27T08:16:23.347Z,12.01
2022-12-27T08:18:53.117Z,12.01
2022-12-27T08:21:21.355Z,11.97
2022-12-27T08:23:49.628Z,11.99
2022-12-27T08:26:18.214Z,12.14
2022-12-27T08:28:46.281Z,12.31
2022-12-27T08:31:16.052Z,12.45
2022-12-27T08:33:44.147Z,12.53
2022-12-27T08:39:02.036Z,12.69
2022-12-27T08:41:30.119Z,12.76
2022-12-27T08:43:58.110Z,12.87
2022-12-27T08:46:27.674Z,12.87
2022-12-27T08:48:55.788Z,12.88
2022-12-27T08:51:34.352Z,12.93
2022-12-27T08:54:07.098Z,12.95
2022-12-27T08:56:35.385Z,12.89
2022-12-27T08:59:03.762Z,12.83
2022-12-27T09:01:33.437Z,12.75
2022-12-27T09:04:01.605Z,12.80
2022-12-27T09:06:33.272Z,12.94
2022-12-27T09:09:01.523Z,12.99
2022-12-27T09:11:32.336Z,12.99
2022-12-27T09:14:02.037Z,13.08
2022-12-27T09:16:31.225Z,12.91
2022-12-27T09:19:01.396Z,12.91
2022-12-27T09:21:31.948Z,13.03
2022-12-27T09:24:00.530Z,13.12
2022-12-27T09:26:30.547Z,13.18
2022-12-27T09:29:01.978Z,13.25
2022-12-27T09:31:30.110Z,13.26
2022-12-27T09:34:02.362Z,13.32
2022-12-27T09:36:31.634Z,13.36
2022-12-27T09:39:00.464Z,13.38
2022-12-27T09:44:35.622Z,13.52
2022-12-27T09:47:12.361Z,13.58
2022-12-27T09:49:46.724Z,13.55
2022-12-27T09:52:18.895Z,13.58
2022-12-27T09:55:01.006Z,13.57
2022-12-27T09:57:38.224Z,13.53
2022-12-27T10:00:15.758Z,13.54
2022-12-27T10:02:45.562Z,13.33
2022-12-27T10:05:21.938Z,13.33
2022-12-27T10:08:14.284Z,13.22
2022-12-27T10:10:45.840Z,13.03
2022-12-27T10:13:25.846Z,13.00
2022-12-27T10:16:10.531Z,13.01
2022-12-27T10:18:47.830Z,12.89
2022-12-27T10:21:21.899Z,12.80
2022-12-27T10:23:56.849Z,12.56
2022-12-27T10:26:25.127Z,12.63
2022-12-27T10:28:57.686Z,12.63
2022-12-27T10:31:26.839Z,12.58
2022-12-27T10:33:55.432Z,12.51
2022-12-27T10:36:27.678Z,12.86
2022-12-27T10:38:56.266Z,12.76
2022-12-27T10:41:39.902Z,12.88
2022-12-27T10:44:11.576Z,13.03
2022-12-27T10:46:42.544Z,13.11
2022-12-27T10:49:25.761Z,12.97
2022-12-27T10:51:58.880Z,12.72
2022-12-27T10:54:28.876Z,12.51
2022-12-27T10:56:58.171Z,12.42
2022-12-27T10:59:29.370Z,12.62
2022-12-27T11:02:18.356Z,12.92
2022-12-27T11:05:21.163Z,13.18
2022-12-27T11:07:50.577Z,13.42
2022-12-27T11:10:21.675Z,13.59
2022-12-27T11:12:57.964Z,13.65
2022-12-27T11:15:27.032Z,13.47
2022-12-27T11:17:57.224Z,13.32
2022-12-27T11:20:28.798Z,13.28
2022-12-27T11:23:03.133Z,13.28
2022-12-27T11:25:32.590Z,13.59
2022-12-27T11:28:04.035Z,13.85
2022-12-27T11:30:35.567Z,14.04
2022-12-27T11:33:07.142Z,14.27
2022-12-27T11:35:47.609Z,14.37
2022-12-27T11:38:25.245Z,14.55
2022-12-27T11:41:00.946Z,14.49
2022-12-27T11:43:33.644Z,14.57
2022-12-27T11:46:04.284Z,14.65
2022-12-27T11:48:37.490Z,14.51
2022-12-27T11:51:25.280Z,14.61
2022-12-27T11:54:20.844Z,14.67
2022-12-27T11:56:54.163Z,14.53
2022-12-27T11:59:42.131Z,14.75
2022-12-27T12:02:33.509Z,14.77
2022-12-27T12:05:41.805Z,14.83
2022-12-27T12:08:29.890Z,14.90
2022-12-27T12:11:10.887Z,14.74
2022-12-27T12:13:59.689Z,14.86
2022-12-27T12:16:56.613Z,14.70
2022-12-27T12:19:42.553Z,14.53
2022-12-27T12:22:31.174Z,14.34
2022-12-27T12:25:24.410Z,14.08
2022-12-27T12:28:56.483Z,14.42
2022-12-27T12:31:28.739Z,14.33
2022-12-27T12:34:14.879Z,14.46
2022-12-27T12:36:54.402Z,14.70
2022-12-27T12:39:33.571Z,14.84
2022-12-27T12:42:16.192Z,14.80
2022-12-27T12:45:20.782Z,14.93
2022-12-27T12:48:07.761Z,15.00
2022-12-27T12:51:03.005Z,15.00
2022-12-27T12:53:58.994Z,14.84
2022-12-27T12:56:55.891Z,14.78
2022-12-27T12:59:40.866Z,14.77
2022-12-27T13:02:33.472Z,14.65
2022-12-27T13:05:13.861Z,14.53
2022-12-27T13:07:53.681Z,14.46
2022-12-27T13:10:44.671Z,14.56
2022-12-27T13:13:23.949Z,14.70
2022-12-27T13:16:01.041Z,14.82
2022-12-27T13:18:39.217Z,14.73
2022-12-27T13:21:17.545Z,14.52
2022-12-27T13:23:59.795Z,14.45
2022-12-27T13:26:39.699Z,14.60
2022-12-27T13:29:34.994Z,14.48
2022-12-27T13:32:13.405Z,14.58
2022-12-27T13:34:51.445Z,14.53
2022-12-27T13:37:33.647Z,14.59
2022-12-27T13:40:26.414Z,14.70
2022-12-27T13:43:18.266Z,14.84
2022-12-27T13:46:05.421Z,15.07
2022-12-27T13:48:57.769Z,14.77
2022-12-27T13:51:45.593Z,15.15
2022-12-27T13:54:46.014Z,14.95
2022-12-27T13:57:30.727Z,15.01
2022-12-27T14:00:14.675Z,15.26
2022-12-27T14:03:24.320Z,15.30
2022-12-27T14:06:16.656Z,15.40
2022-12-27T14:09:22.508Z,15.45
2022-12-27T14:12:06.018Z,15.44
2022-12-27T14:14:39.019Z,15.28
2022-12-27T14:17:22.217Z,15.33
2022-12-27T14:20:04.772Z,15.40
2022-12-27T14:22:56.229Z,15.09
2022-12-27T14:26:00.315Z,15.12
2022-12-27T14:28:59.630Z,15.13
2022-12-27T14:32:21.957Z,15.05
2022-12-27T14:35:27.424Z,15.07
2022-12-27T14:38:31.471Z,14.92
2022-12-27T14:41:39.045Z,14.96
2022-12-27T14:44:42.471Z,15.09
2022-12-27T14:47:41.376Z,15.24
2022-12-27T14:50:31.950Z,15.47
2022-12-27T14:53:37.175Z,15.44
2022-12-27T14:56:19.580Z,15.46
2022-12-27T14:58:57.094Z,15.38
2022-12-27T15:01:40.850Z,15.29
2022-12-27T15:04:51.575Z,15.12
2022-12-27T15:07:32.674Z,15.00
2022-12-27T15:10:09.684Z,14.87
2022-12-27T15:12:47.160Z,14.53
2022-12-27T15:15:25.560Z,14.32
2022-12-27T15:18:15.970Z,14.14
2022-12-27T15:21:00.279Z,14.17
2022-12-27T15:23:38.172Z,13.88
2022-12-27T15:26:18.697Z,13.77
2022-12-27T15:28:59.101Z,13.78
2022-12-27T15:31:37.586Z,13.76
2022-12-27T15:34:25.027Z,13.71
2022-12-27T15:36:54.816Z,13.80
2022-12-27T15:39:51.194Z,13.97
2022-12-27T15:42:48.960Z,14.07
2022-12-27T15:45:33.796Z,14.18
2022-12-27T15:48:34.968Z,13.94
2022-12-27T15:51:12.541Z,13.84
2022-12-27T15:54:01.279Z,14.10
2022-12-27T15:56:43.344Z,14.14
2022-12-27T15:59:36.292Z,14.23
2022-12-27T16:02:33.516Z,14.18
2022-12-27T16:05:13.347Z,14.11
2022-12-27T16:07:47.777Z,14.15
2022-12-27T16:10:53.341Z,14.15
2022-12-27T16:13:42.738Z,14.20
2022-12-27T16:16:33.677Z,14.17
2022-12-27T16:19:17.968Z,14.12
2022-12-27T16:21:47.421Z,14.12
2022-12-27T16:24:20.013Z,14.08
2022-12-27T16:26:55.381Z,14.09
2022-12-27T16:29:29.002Z,13.94
2022-12-27T16:32:19.701Z,14.00
2022-12-27T16:34:54.315Z,13.98
2022-12-27T16:37:32.093Z,13.97
2022-12-27T16:40:17.709Z,13.97
2022-12-27T16:43:37.084Z,13.97
2022-12-27T16:46:23.875Z,13.86
2022-12-27T16:49:10.204Z,13.72
2022-12-27T16:51:53.799Z,13.78
2022-12-27T16:54:32.543Z,13.78
2022-12-27T16:57:23.447Z,13.76
2022-12-27T17:00:01.372Z,13.71
2022-12-27T17:02:44.723Z,13.69
2022-12-27T17:05:37.618Z,13.56
2022-12-27T17:08:20.147Z,13.36
2022-12-27T17:11:01.231Z,13.38
2022-12-27T17:13:39.450Z,13.17
2022-12-27T17:16:19.841Z,13.36
2022-12-27T17:18:53.239Z,13.25
2022-12-27T17:21:30.417Z,13.29
2022-12-27T17:24:01.306Z,13.14
2022-12-27T17:27:08.618Z,13.03
2022-12-27T17:30:05.002Z,13.02
2022-12-27T17:33:00.031Z,12.95
2022-12-27T17:35:34.418Z,12.90
2022-12-27T17:38:17.974Z,13.04
2022-12-27T17:40:57.362Z,13.09
2022-12-27T17:43:55.838Z,12.84
2022-12-27T17:46:37.561Z,12.89
2022-12-27T17:49:09.743Z,12.96
2022-12-27T17:52:01.603Z,13.02
2022-12-27T17:54:48.078Z,13.03
2022-12-27T17:57:36.388Z,12.97
2022-12-27T18:00:06.427Z,12.84
2022-12-27T18:02:39.659Z,12.83
2022-12-27T18:05:14.790Z,12.84
2022-12-27T18:07:44.926Z,12.63
2022-12-27T18:10:21.131Z,12.68
2022-12-27T18:12:52.909Z,12.52
2022-12-27T18:15:23.652Z,12.31
2022-12-27T18:17:54.042Z,12.33
2022-12-27T18:20:31.046Z,12.45
2022-12-27T18:23:20.199Z,12.45
2022-12-27T18:26:02.809Z,12.51
2022-12-27T18:28:33.682Z,12.59
2022-12-27T18:31:08.698Z,12.60
2022-12-27T18:33:43.387Z,12.58
2022-12-27T18:36:17.899Z,12.49
2022-12-27T18:38:53.888Z,12.20
2022-12-27T18:41:24.037Z,11.96
2022-12-27T18:43:58.331Z,11.90
2022-12-27T18:46:29.468Z,11.85
2022-12-27T18:48:58.413Z,12.18
2022-12-27T18:51:36.257Z,12.21
2022-12-27T18:54:21.239Z,12.26
2022-12-27T18:56:52.557Z,12.14
2022-12-27T18:59:25.914Z,12.24
2022-12-27T19:01:55.223Z,12.42
2022-12-27T19:04:29.531Z,12.51
2022-12-27T19:07:08.652Z,12.52
2022-12-27T19:09:39.252Z,12.50
2022-12-27T19:12:10.378Z,12.60
2022-12-27T19:14:44.638Z,12.68
2022-12-27T19:17:19.163Z,12.61
2022-12-27T19:19:49.631Z,12.38
2022-12-27T19:22:36.027Z,12.30
2022-12-27T19:25:08.212Z,12.32
2022-12-27T19:27:36.610Z,12.26
2022-12-27T19:30:05.609Z,12.14
2022-12-27T19:32:36.478Z,12.09
2022-12-27T19:35:06.376Z,12.21
2022-12-27T19:37:36.681Z,12.19
2022-12-27T19:40:15.146Z,12.28
2022-12-27T19:42:45.003Z,12.25
2022-12-27T19:45:15.432Z,12.25
2022-12-27T19:47:43.984Z,12.11
2022-12-27T19:50:13.522Z,11.96
2022-12-27T19:52:44.611Z,11.93
2022-12-27T19:55:20.664Z,11.87
2022-12-27T19:57:49.541Z,11.69
2022-12-27T20:00:20.291Z,11.63
2022-12-27T20:02:52.361Z,11.72
2022-12-27T20:06:11.500Z,11.73
2022-12-27T20:08:23.915Z,11.64
2022-12-27T20:10:52.009Z,11.54
2022-12-27T20:13:21.083Z,11.27
2022-12-27T20:15:49.339Z,11.41
2022-12-27T20:18:17.639Z,11.46
2022-12-27T20:20:47.018Z,11.37
2022-12-27T20:23:17.025Z,11.19
2022-12-27T20:25:47.424Z,11.01
2022-12-27T20:28:17.732Z,10.91
2022-12-27T20:30:47.097Z,11.01
2022-12-27T20:33:16.041Z,10.97
2022-12-27T20:35:44.059Z,11.00
2022-12-27T20:38:12.930Z,10.90
2022-12-27T20:40:42.685Z,10.90
2022-12-27T20:43:10.955Z,10.77
2022-12-27T20:45:38.971Z,10.76
2022-12-27T20:48:09.353Z,10.70
2022-12-27T20:50:37.857Z,10.60
2022-12-27T20:53:06.069Z,10.34
2022-12-27T20:55:34.798Z,9.83
2022-12-27T20:58:04.949Z,9.75
2022-12-27T21:00:33.310Z,9.82
2022-12-27T21:03:01.392Z,10.00
2022-12-27T21:05:29.512Z,10.26
2022-12-27T21:07:57.720Z,10.33
2022-12-27T21:10:25.703Z,10.23
2022-12-27T21:12:53.744Z,10.08
2022-12-27T21:15:24.171Z,10.17
2022-12-27T21:17:52.318Z,9.86
2022-12-27T21:20:20.308Z,9.82
2022-12-27T21:22:48.608Z,9.87
2022-12-27T21:25:16.945Z,9.71
2022-12-27T21:27:44.952Z,9.93
2022-12-27T21:30:14.517Z,10.04
2022-12-27T21:32:44.115Z,10.14
2022-12-27T21:35:12.471Z,10.19
2022-12-27T21:37:40.970Z,10.20
2022-12-27T21:40:10.115Z,10.18
2022-12-27T21:42:38.314Z,10.20
2022-12-27T21:45:07.603Z,10.08
2022-12-27T21:47:36.159Z,10.04
2022-12-27T21:50:06.206Z,10.00
2022-12-27T21:52:34.227Z,10.16
2022-12-27T21:55:02.566Z,10.10
2022-12-27T21:57:30.620Z,10.12
2022-12-27T21:59:58.606Z,10.30
2022-12-27T22:02:26.864Z,10.44
2022-12-27T22:04:55.024Z,10.54
2022-12-27T22:07:24.832Z,10.68
2022-12-27T22:09:53.258Z,10.80
2022-12-27T22:12:21.421Z,10.85
2022-12-27T22:14:50.447Z,10.81
2022-12-27T22:17:18.702Z,10.95
2022-12-27T22:19:46.809Z,10.59
2022-12-27T22:22:15.021Z,11.00
2022-12-27T22:24:44.413Z,11.12
2022-12-27T22:27:12.632Z,11.14
2022-12-27T22:29:40.705Z,11.10
2022-12-27T22:32:08.749Z,11.06
2022-12-27T22:34:36.707Z,11.05
2022-12-27T22:37:05.004Z,10.99
2022-12-27T22:39:33.736Z,10.88
2022-12-27T22:42:03.166Z,10.82
2022-12-27T22:44:31.186Z,10.81
2022-12-27T22:49:47.568Z,10.83
2022-12-27T22:52:23.782Z,10.91
2022-12-27T22:55:04.399Z,10.93
2022-12-27T22:57:36.748Z,11.02
2022-12-27T23:00:06.585Z,10.97
2022-12-27T23:02:34.966Z,11.01
2022-12-27T23:05:03.456Z,11.01
2022-12-27T23:08:04.817Z,10.98
2022-12-27T23:10:19.550Z,10.89
2022-12-27T23:12:49.017Z,10.89
2022-12-27T23:15:17.524Z,10.80
2022-12-27T23:17:45.557Z,10.79
2022-12-27T23:20:13.780Z,10.88
2022-12-27T23:22:41.791Z,10.98
2022-12-27T23:25:10.053Z,10.95
2022-12-27T23:27:38.121Z,10.91
2022-12-27T23:30:08.792Z,10.85
2022-12-27T23:32:36.775Z,10.85
2022-12-27T23:35:05.277Z,10.78
2022-12-27T23:37:33.291Z,10.78
2022-12-27T23:40:01.529Z,10.40
2022-12-27T23:42:29.632Z,10.34
2022-12-27T23:44:57.628Z,10.42
2022-12-27T23:47:27.186Z,10.45
2022-12-27T23:49:55.282Z,10.47
2022-12-27T23:52:23.287Z,10.31
2022-12-27T23:54:51.398Z,10.10
2022-12-27T23:57:22.565Z,10.20
2022-12-27T23:59:51.673Z,10.14
